Time;durP1;ratioP1;P1;durP2;ratioP2;P2;SDS_P1;SDS_P2;PMS_P1;PMS_P2;Temp;Humidity;BMP_temperature;BMP_pressure;BME280_temperature;BME280_humidity;BME280_pressure;Samples;Min_cycle;Max_cycle;Signal;HPM_P1;HPM_P2
2022/10/07 00:01:28;;;;;;;7.70;3.08;;;18.10;96.70;;;;;;5081893;28;20040;-77
2022/10/07 00:03:56;;;;;;;5.57;2.22;;;18.10;96.70;;;;;;5084301;28;20052;-76
2022/10/07 00:06:26;;;;;;;7.13;2.53;;;18.00;96.70;;;;;;5083673;28;20043;-77
2022/10/07 00:08:54;;;;;;;4.07;2.10;;;18.00;96.70;;;;;;5085406;28;20452;-77
2022/10/07 00:11:24;;;;;;;4.68;2.10;;;18.00;96.70;;;;;;5079305;28;20041;-77
2022/10/07 00:13:54;;;;;;;4.15;2.35;;;17.90;96.70;;;;;;5077279;28;20071;-77
2022/10/07 00:16:25;;;;;;;6.25;2.20;;;17.90;96.70;;;;;;5086547;28;20541;-77
2022/10/07 00:18:57;;;;;;;5.22;2.53;;;17.90;96.70;;;;;;5084973;28;20055;-77
2022/10/07 00:21:29;;;;;;;4.70;2.17;;;17.90;96.70;;;;;;5081067;28;20051;-77
2022/10/07 00:23:58;;;;;;;4.55;2.50;;;17.80;96.70;;;;;;5067026;28;20044;-77
2022/10/07 00:26:29;;;;;;;7.22;2.40;;;17.90;96.70;;;;;;5079734;28;20048;-77
2022/10/07 00:28:57;;;;;;;4.85;2.80;;;17.90;96.70;;;;;;5081070;28;20101;-76
2022/10/07 00:31:26;;;;;;;5.68;3.03;;;17.80;96.70;;;;;;5096298;28;20044;-77
2022/10/07 00:33:55;;;;;;;4.90;2.40;;;17.80;96.70;;;;;;5082375;28;20098;-77
2022/10/07 00:36:27;;;;;;;4.00;2.53;;;17.70;96.70;;;;;;5085067;28;20460;-77
2022/10/07 00:38:56;;;;;;;4.95;2.67;;;17.70;96.70;;;;;;5084234;28;20471;-76
2022/10/07 00:41:27;;;;;;;6.53;2.40;;;17.70;96.70;;;;;;5086553;28;20048;-76
2022/10/07 00:43:55;;;;;;;6.80;2.35;;;17.70;96.70;;;;;;5085449;28;20040;-76
2022/10/07 00:46:29;;;;;;;4.53;2.75;;;17.70;96.70;;;;;;5085494;28;20032;-76
2022/10/07 00:49:01;;;;;;;6.22;2.35;;;17.60;96.70;;;;;;5084416;28;20049;-76
2022/10/07 00:51:32;;;;;;;5.00;2.53;;;17.60;96.70;;;;;;5086449;28;20564;-76
2022/10/07 00:54:03;;;;;;;4.53;2.20;;;17.70;96.70;;;;;;5084445;28;20090;-76
2022/10/07 00:56:32;;;;;;;2.90;1.77;;;17.60;96.70;;;;;;5083143;28;20048;-77
2022/10/07 00:59:00;;;;;;;4.95;2.15;;;17.60;96.70;;;;;;5081376;28;20141;-77
2022/10/07 01:01:30;;;;;;;5.05;2.25;;;17.60;96.70;;;;;;5066897;28;20073;-77
2022/10/07 01:03:58;;;;;;;5.35;2.10;;;17.50;96.70;;;;;;5080778;28;20600;-76
2022/10/07 01:06:26;;;;;;;5.55;2.17;;;17.50;96.70;;;;;;5082785;28;20048;-76
2022/10/07 01:08:56;;;;;;;4.15;2.20;;;17.50;96.70;;;;;;5080466;28;20513;-76
2022/10/07 01:11:38;;;;;;;3.47;2.05;;;17.50;96.70;;;;;;5082430;28;20489;-76
2022/10/07 01:14:11;;;;;;;5.28;2.10;;;17.50;96.70;;;;;;5084162;28;20512;-75
2022/10/07 01:16:48;;;;;;;4.90;2.17;;;17.40;96.70;;;;;;5083441;28;20406;-76
2022/10/07 01:19:43;;;;;;;4.43;2.10;;;17.30;96.70;;;;;;5084133;28;20447;-76
2022/10/07 01:22:23;;;;;;;3.00;2.10;;;17.30;96.70;;;;;;5084790;28;20079;-76
2022/10/07 01:25:15;;;;;;;2.47;1.60;;;17.30;96.70;;;;;;5081320;28;20044;-76
2022/10/07 01:27:49;;;;;;;5.30;2.13;;;17.20;96.70;;;;;;5083667;28;20044;-76
2022/10/07 01:30:18;;;;;;;6.60;2.65;;;17.30;96.70;;;;;;5084740;28;20048;-76
2022/10/07 01:32:52;;;;;;;4.93;2.10;;;17.30;96.70;;;;;;5065391;28;20510;-76
2022/10/07 01:35:24;;;;;;;4.68;2.22;;;17.30;96.70;;;;;;5085161;28;20052;-76
2022/10/07 01:37:56;;;;;;;3.88;2.05;;;17.30;96.70;;;;;;5082811;28;20100;-76
2022/10/07 01:40:27;;;;;;;4.63;2.17;;;17.30;96.70;;;;;;5083840;28;20070;-76
2022/10/07 01:42:58;;;;;;;4.28;2.20;;;17.20;96.70;;;;;;5083621;28;20040;-76
2022/10/07 01:45:29;;;;;;;8.02;2.67;;;17.20;96.70;;;;;;5077623;28;20558;-76
2022/10/07 01:48:00;;;;;;;5.05;2.45;;;17.20;96.70;;;;;;5083930;28;20047;-75
2022/10/07 01:50:30;;;;;;;4.65;2.17;;;17.20;96.70;;;;;;5082402;28;20833;-76
2022/10/07 01:53:14;;;;;;;4.20;2.22;;;17.20;96.70;;;;;;5083168;28;20525;-76
2022/10/07 01:55:55;;;;;;;6.78;2.95;;;17.10;96.70;;;;;;5066952;28;20052;-76
2022/10/07 01:58:37;;;;;;;3.50;2.33;;;17.10;96.70;;;;;;5080883;28;20415;-76
2022/10/07 02:01:14;;;;;;;6.93;2.60;;;17.10;96.70;;;;;;5083937;28;20036;-76
2022/10/07 02:04:03;;;;;;;6.65;2.80;;;17.10;96.70;;;;;;5096371;28;20063;-76
2022/10/07 02:06:41;;;;;;;4.78;2.60;;;17.10;96.70;;;;;;5077489;28;20143;-76
2022/10/07 02:09:20;;;;;;;5.40;2.70;;;17.00;96.70;;;;;;5075837;28;20052;-76
2022/10/07 02:11:55;;;;;;;4.82;2.20;;;17.00;96.70;;;;;;5083688;28;20052;-78
2022/10/07 02:14:29;;;;;;;;;;;17.00;96.70;;;;;;5096145;28;20044;-76
2022/10/07 02:17:01;;;;;;;3.58;2.60;;;16.90;96.70;;;;;;5078144;28;20463;-76
2022/10/07 02:19:33;;;;;;;8.15;3.20;;;16.90;96.70;;;;;;5078670;28;20570;-75
2022/10/07 02:22:04;;;;;;;5.57;3.30;;;16.90;96.70;;;;;;5079194;28;20051;-76
2022/10/07 02:24:34;;;;;;;7.13;3.38;;;17.00;96.70;;;;;;5081048;28;20048;-76
2022/10/07 02:27:10;;;;;;;5.57;3.20;;;16.90;96.70;;;;;;5078430;28;20051;-76
2022/10/07 02:29:44;;;;;;;5.35;3.38;;;16.90;96.70;;;;;;5091104;27;20048;-76
2022/10/07 02:32:17;;;;;;;7.78;3.25;;;16.90;96.70;;;;;;5084165;28;20114;-76
2022/10/07 02:34:52;;;;;;;6.63;3.22;;;16.80;96.70;;;;;;5088885;28;20048;-76
2022/10/07 02:37:25;;;;;;;4.88;2.95;;;16.80;96.70;;;;;;5063118;28;20052;-76
2022/10/07 02:39:55;;;;;;;5.90;3.40;;;16.80;96.70;;;;;;5077723;28;20537;-76
2022/10/07 02:42:27;;;;;;;6.68;3.60;;;16.80;96.70;;;;;;5079149;28;20072;-76
2022/10/07 02:45:05;;;;;;;6.25;3.10;;;16.80;96.70;;;;;;5079517;28;20076;-76
2022/10/07 02:47:36;;;;;;;5.20;2.90;;;16.70;96.70;;;;;;5082903;28;20047;-76
2022/10/07 02:50:09;;;;;;;7.28;3.38;;;16.70;96.70;;;;;;5076065;28;20044;-76
2022/10/07 02:52:42;;;;;;;6.97;3.15;;;16.80;96.70;;;;;;5080097;28;20059;-75
2022/10/07 02:55:15;;;;;;;5.18;3.22;;;16.70;96.70;;;;;;5085040;28;20695;-76
2022/10/07 02:57:46;;;;;;;4.75;3.15;;;16.80;96.70;;;;;;5065197;28;20105;-76
2022/10/07 03:00:19;;;;;;;6.57;3.00;;;16.80;96.70;;;;;;5081108;28;20094;-76
2022/10/07 03:02:53;;;;;;;6.40;3.20;;;16.70;96.70;;;;;;5082259;28;20130;-76
2022/10/07 03:05:26;;;;;;;4.20;2.78;;;16.70;96.70;;;;;;5066213;28;20409;-76
2022/10/07 03:08:01;;;;;;;5.75;3.15;;;16.70;96.70;;;;;;5081229;28;20044;-76
2022/10/07 03:10:31;;;;;;;7.22;3.03;;;16.70;96.70;;;;;;5079067;28;20044;-76
2022/10/07 03:13:03;;;;;;;7.35;3.28;;;16.60;96.70;;;;;;5079935;28;20086;-76
2022/10/07 03:15:37;;;;;;;8.40;3.70;;;16.60;96.70;;;;;;5082160;28;20048;-76
2022/10/07 03:18:27;;;;;;;5.15;3.25;;;16.60;96.70;;;;;;5093897;28;20121;-76
2022/10/07 03:21:21;;;;;;;4.78;3.28;;;16.60;96.70;;;;;;5081659;28;20151;-76
2022/10/07 03:23:52;;;;;;;6.47;3.80;;;16.60;96.70;;;;;;5082240;28;20064;-76
2022/10/07 03:26:25;;;;;;;5.70;3.35;;;16.50;96.70;;;;;;5081272;28;20050;-76
2022/10/07 03:28:54;;;;;;;6.38;3.42;;;16.50;96.70;;;;;;5082204;28;20150;-76
2022/10/07 03:31:26;;;;;;;6.25;3.42;;;16.60;96.70;;;;;;5081236;28;20511;-77
2022/10/07 03:33:58;;;;;;;6.68;3.40;;;16.50;96.70;;;;;;5082075;28;20056;-77
2022/10/07 03:36:27;;;;;;;7.63;3.45;;;16.50;96.70;;;;;;5083713;28;20096;-76
2022/10/07 03:38:55;;;;;;;7.05;3.30;;;16.40;96.70;;;;;;5085618;28;20592;-76
2022/10/07 03:41:24;;;;;;;4.50;2.70;;;16.40;96.70;;;;;;5085679;28;20055;-76
2022/10/07 03:43:56;;;;;;;7.20;2.58;;;16.40;96.70;;;;;;5089113;28;20047;-76
2022/10/07 03:46:27;;;;;;;4.60;2.80;;;16.40;96.70;;;;;;5066617;28;20079;-76
2022/10/07 03:48:55;;;;;;;8.00;2.40;;;16.40;96.70;;;;;;5083871;28;20509;-76
2022/10/07 03:51:23;;;;;;;7.20;2.25;;;16.30;96.70;;;;;;5087127;28;20047;-76
2022/10/07 03:53:56;;;;;;;4.32;2.20;;;16.30;96.70;;;;;;5085330;28;20040;-76
2022/10/07 03:56:28;;;;;;;4.75;2.20;;;16.30;96.70;;;;;;5085451;28;20134;-76
2022/10/07 03:58:56;;;;;;;3.85;2.30;;;16.30;96.70;;;;;;5080582;28;20048;-76
2022/10/07 04:01:30;;;;;;;3.78;2.13;;;16.20;96.70;;;;;;5083010;28;20042;-76
2022/10/07 04:04:00;;;;;;;6.25;2.58;;;16.10;96.70;;;;;;5083892;28;20051;-76
2022/10/07 04:06:32;;;;;;;4.25;2.28;;;16.10;96.70;;;;;;5084914;28;20040;-75
2022/10/07 04:09:04;;;;;;;3.67;2.50;;;16.10;96.70;;;;;;5084257;28;20048;-76
2022/10/07 04:11:32;;;;;;;4.28;2.75;;;15.90;96.70;;;;;;5096350;28;20455;-76
2022/10/07 04:14:00;;;;;;;5.85;2.70;;;15.90;96.70;;;;;;5067883;28;20043;-76
2022/10/07 04:16:32;;;;;;;3.63;2.65;;;15.90;96.70;;;;;;5085333;28;20076;-76
2022/10/07 04:19:07;;;;;;;9.40;3.38;;;16.00;96.70;;;;;;5080808;28;20165;-76
2022/10/07 04:21:35;;;;;;;4.72;2.92;;;16.00;96.70;;;;;;5085480;28;20137;-76
2022/10/07 04:24:04;;;;;;;5.30;3.03;;;16.00;96.70;;;;;;5083753;28;20040;-77
2022/10/07 04:26:32;;;;;;;4.40;2.85;;;15.90;96.70;;;;;;5085925;28;20064;-76
2022/10/07 04:29:01;;;;;;;5.43;2.90;;;15.90;96.70;;;;;;5084289;28;20044;-76
2022/10/07 04:31:31;;;;;;;6.05;3.08;;;15.80;96.70;;;;;;5084713;28;20572;-76
2022/10/07 04:34:04;;;;;;;8.65;3.25;;;15.80;96.70;;;;;;5063813;28;20130;-76
2022/10/07 04:36:35;;;;;;;6.50;3.13;;;15.90;96.70;;;;;;5067734;28;20588;-76
2022/10/07 04:39:07;;;;;;;7.25;3.03;;;15.90;96.70;;;;;;5066720;28;20071;-76
2022/10/07 04:41:39;;;;;;;5.22;3.13;;;15.90;96.70;;;;;;5083640;28;20420;-76
2022/10/07 04:44:13;;;;;;;5.82;3.00;;;15.90;96.70;;;;;;5066346;28;20051;-76
2022/10/07 04:46:55;;;;;;;6.68;2.95;;;15.90;96.70;;;;;;5080038;28;20055;-76
2022/10/07 04:49:26;;;;;;;9.05;3.03;;;15.80;96.70;;;;;;5081798;28;20070;-76
2022/10/07 04:51:56;;;;;;;7.63;3.40;;;15.80;96.70;;;;;;5083945;28;20079;-76
2022/10/07 04:54:30;;;;;;;7.07;3.28;;;15.80;96.70;;;;;;5068312;28;20101;-75
2022/10/07 04:56:58;;;;;;;9.57;3.10;;;15.80;96.70;;;;;;5084948;28;20432;-76
2022/10/07 04:59:27;;;;;;;10.38;3.20;;;15.80;96.70;;;;;;5082385;28;20037;-76
2022/10/07 05:01:59;;;;;;;7.65;3.28;;;15.80;96.70;;;;;;5081158;28;20563;-76
2022/10/07 05:04:29;;;;;;;5.93;3.25;;;15.80;96.70;;;;;;5082921;28;20055;-76
2022/10/07 05:06:58;;;;;;;7.10;3.90;;;15.80;96.70;;;;;;5066915;28;20094;-76
2022/10/07 05:09:28;;;;;;;6.13;3.13;;;15.80;96.70;;;;;;5079375;28;20506;-76
2022/10/07 05:11:56;;;;;;;6.28;3.28;;;15.80;96.70;;;;;;5084239;28;20040;-77
2022/10/07 05:14:24;;;;;;;5.03;3.00;;;15.70;96.70;;;;;;5084320;28;20141;-76
2022/10/07 05:16:54;;;;;;;4.97;3.00;;;15.70;96.70;;;;;;5084105;28;20056;-76
2022/10/07 05:19:27;;;;;;;5.95;3.22;;;15.80;96.70;;;;;;5084430;28;20054;-77
2022/10/07 05:21:55;;;;;;;6.45;3.25;;;15.80;96.70;;;;;;5065380;28;20040;-76
2022/10/07 05:24:25;;;;;;;7.35;3.72;;;15.70;96.70;;;;;;5077963;28;20406;-76
2022/10/07 05:26:53;;;;;;;5.53;3.30;;;15.70;96.70;;;;;;5084233;28;20132;-77
2022/10/07 05:29:22;;;;;;;8.18;3.20;;;15.70;96.70;;;;;;5066925;28;20047;-76
2022/10/07 05:31:53;;;;;;;6.80;2.97;;;15.70;96.70;;;;;;5084231;28;20499;-76
2022/10/07 05:34:25;;;;;;;7.45;3.60;;;15.70;96.70;;;;;;5068147;28;20052;-76
2022/10/07 05:36:55;;;;;;;9.85;3.33;;;15.60;96.70;;;;;;5082506;28;20055;-76
2022/10/07 05:39:24;;;;;;;7.22;3.38;;;15.70;96.70;;;;;;5083809;28;20056;-76
2022/10/07 05:41:57;;;;;;;6.30;3.28;;;15.70;96.70;;;;;;5067240;28;20043;-76
2022/10/07 05:44:31;;;;;;;6.20;3.08;;;15.70;96.70;;;;;;5083542;28;20089;-76
2022/10/07 05:47:02;;;;;;;8.55;3.15;;;15.70;96.70;;;;;;5083241;28;20517;-76
2022/10/07 05:49:31;;;;;;;5.82;3.13;;;15.70;96.70;;;;;;5083389;28;20052;-76
2022/10/07 05:52:02;;;;;;;7.75;3.17;;;15.70;96.70;;;;;;5082361;28;20122;-76
2022/10/07 05:54:32;;;;;;;7.45;3.40;;;15.70;96.70;;;;;;5083139;28;20041;-76
2022/10/07 05:57:01;;;;;;;7.10;3.63;;;15.70;96.70;;;;;;5083104;28;20040;-76
2022/10/07 05:59:30;;;;;;;4.43;3.50;;;15.80;96.70;;;;;;5082235;28;20044;-76
2022/10/07 06:01:59;;;;;;;5.72;3.17;;;15.80;96.70;;;;;;5081852;28;20072;-76
2022/10/07 06:04:28;;;;;;;7.47;3.45;;;15.70;96.70;;;;;;5082435;28;20055;-75
2022/10/07 06:06:56;;;;;;;8.85;4.20;;;15.80;96.70;;;;;;5082684;28;20450;-76
2022/10/07 06:15:09;;;;;;;6.93;3.47;;;15.90;96.70;;;;;;5079857;28;20432;-76
2022/10/07 06:17:44;;;;;;;4.82;3.45;;;15.90;96.70;;;;;;5079924;28;20055;-76
2022/10/07 06:20:16;;;;;;;8.93;3.60;;;15.90;96.70;;;;;;5078084;28;20047;-76
2022/10/07 06:22:45;;;;;;;4.97;3.10;;;15.90;96.70;;;;;;5113031;27;20051;-76
2022/10/07 06:25:16;;;;;;;4.80;3.17;;;15.90;96.70;;;;;;5075013;28;20473;-76
2022/10/07 06:27:45;;;;;;;6.40;3.00;;;16.00;96.70;;;;;;5095658;27;20080;-76
2022/10/07 06:30:20;;;;;;;7.63;3.40;;;16.00;96.70;;;;;;5079705;28;20519;-76
2022/10/07 06:32:49;;;;;;;6.30;3.08;;;16.00;96.70;;;;;;5083037;28;20055;-76
2022/10/07 06:35:17;;;;;;;6.90;3.60;;;16.00;96.70;;;;;;5080642;28;20584;-76
2022/10/07 06:37:47;;;;;;;4.43;3.08;;;15.80;96.70;;;;;;5082507;28;20046;-76
2022/10/07 06:40:17;;;;;;;6.63;3.10;;;15.90;96.70;;;;;;5080169;28;20078;-78
2022/10/07 06:42:46;;;;;;;7.88;2.90;;;16.10;96.70;;;;;;5083979;28;20040;-77
2022/10/07 06:45:35;;;;;;;5.47;3.38;;;16.10;96.70;;;;;;5082535;28;20488;-77
2022/10/07 06:48:04;;;;;;;5.20;3.45;;;16.20;96.70;;;;;;5081809;28;20409;-77
2022/10/07 06:50:32;;;;;;;4.35;3.80;;;16.20;96.70;;;;;;5067083;28;20050;-77
2022/10/07 06:53:01;;;;;;;5.47;3.80;;;16.20;96.70;;;;;;5097619;28;20405;-77
2022/10/07 06:55:33;;;;;;;7.22;4.20;;;16.30;96.70;;;;;;5066336;28;20425;-79
2022/10/07 06:58:01;;;;;;;7.10;4.40;;;16.30;96.70;;;;;;5081548;28;20358;-77
2022/10/07 07:00:36;;;;;;;9.13;5.30;;;16.40;96.70;;;;;;5078359;28;20075;-78
2022/10/07 07:03:04;;;;;;;8.57;5.32;;;16.40;96.70;;;;;;5070722;28;20036;-79
2022/10/07 07:05:36;;;;;;;10.57;6.25;;;16.40;96.70;;;;;;5081524;28;20083;-77
2022/10/07 07:08:14;;;;;;;9.70;5.63;;;16.50;96.70;;;;;;5093936;28;20042;-78
2022/10/07 07:10:44;;;;;;;10.13;5.40;;;16.50;96.70;;;;;;5065957;28;20147;-79
2022/10/07 07:13:14;;;;;;;8.65;4.90;;;16.50;96.70;;;;;;5084735;28;20563;-78
2022/10/07 07:15:42;;;;;;;9.38;5.13;;;16.60;96.70;;;;;;5084659;28;20109;-78
2022/10/07 07:18:10;;;;;;;11.95;5.10;;;16.70;96.70;;;;;;5073379;28;20052;-82
2022/10/07 07:20:39;;;;;;;7.57;5.13;;;16.70;96.70;;;;;;5082025;28;20143;-81
2022/10/07 07:23:11;;;;;;;7.55;5.20;;;16.70;96.70;;;;;;5090435;28;20428;-82
2022/10/07 07:25:44;;;;;;;9.35;5.43;;;16.80;96.70;;;;;;5073810;28;20082;-82
2022/10/07 07:28:15;;;;;;;8.73;6.05;;;16.80;96.70;;;;;;5090044;28;20351;-80
2022/10/07 07:30:44;;;;;;;7.90;6.05;;;16.90;96.70;;;;;;5088902;28;20051;-81
2022/10/07 07:33:13;;;;;;;9.40;5.68;;;16.90;96.70;;;;;;5072204;28;20663;-82
2022/10/07 07:35:42;;;;;;;15.27;6.70;;;17.00;96.70;;;;;;5084298;28;20063;-79
2022/10/07 07:38:10;;;;;;;12.50;6.55;;;17.00;96.70;;;;;;5086744;28;20040;-80
2022/10/07 07:40:39;;;;;;;10.68;6.65;;;17.10;96.70;;;;;;5069957;28;20067;-79
2022/10/07 07:43:08;;;;;;;11.55;7.13;;;17.10;96.70;;;;;;5080932;28;20048;-82
2022/10/07 07:45:38;;;;;;;10.75;6.03;;;17.20;96.70;;;;;;5089478;28;20837;-80
2022/10/07 07:48:07;;;;;;;9.82;6.38;;;17.30;96.70;;;;;;5077534;28;20055;-80
2022/10/07 07:50:39;;;;;;;7.75;5.72;;;17.40;96.70;;;;;;5087388;28;20040;-81
2022/10/07 07:53:08;;;;;;;14.32;7.68;;;17.40;96.70;;;;;;5082082;28;20048;-81
2022/10/07 07:55:36;;;;;;;11.57;6.90;;;17.50;96.70;;;;;;5068687;28;20036;-81
2022/10/07 07:58:05;;;;;;;8.93;5.93;;;17.60;96.70;;;;;;5084203;28;20052;-80
2022/10/07 08:00:41;;;;;;;8.35;6.05;;;17.60;96.70;;;;;;5064900;28;20094;-80
2022/10/07 08:03:10;;;;;;;8.00;6.03;;;17.50;96.70;;;;;;5082420;28;20044;-78
2022/10/07 08:05:38;;;;;;;7.75;5.53;;;17.60;96.70;;;;;;5084016;28;20041;-77
2022/10/07 08:08:09;;;;;;;13.80;7.00;;;17.60;96.70;;;;;;5082611;28;20095;-78
2022/10/07 08:10:39;;;;;;;10.02;6.50;;;17.80;96.70;;;;;;5069723;28;20066;-81
2022/10/07 08:13:07;;;;;;;10.65;6.45;;;17.90;96.70;;;;;;5085049;28;20786;-80
2022/10/07 08:15:36;;;;;;;12.48;6.55;;;17.90;96.70;;;;;;5083057;28;20060;-81
2022/10/07 08:18:07;;;;;;;7.53;5.85;;;18.00;96.70;;;;;;5097905;28;20055;-81
2022/10/07 08:20:35;;;;;;;8.75;6.28;;;18.00;96.70;;;;;;5086144;28;20058;-81
2022/10/07 08:23:05;;;;;;;10.68;7.60;;;18.10;96.70;;;;;;5086213;28;20431;-81
2022/10/07 08:25:35;;;;;;;16.35;9.20;;;18.20;96.70;;;;;;5069057;28;20101;-81
2022/10/07 08:28:05;;;;;;;13.63;8.23;;;18.30;96.70;;;;;;5087618;28;20052;-81
2022/10/07 08:30:34;;;;;;;14.73;10.00;;;18.40;96.70;;;;;;5084385;28;20070;-81
2022/10/07 08:33:03;;;;;;;13.60;8.35;;;18.40;96.70;;;;;;5085542;28;20696;-81
2022/10/07 08:35:33;;;;;;;9.77;7.65;;;18.50;96.70;;;;;;5082029;28;20413;-81
2022/10/07 08:38:01;;;;;;;9.80;7.07;;;18.60;96.70;;;;;;5093963;28;20048;-81
2022/10/07 08:40:29;;;;;;;8.43;6.15;;;18.60;96.70;;;;;;5102459;28;20089;-81
2022/10/07 08:42:59;;;;;;;10.57;7.28;;;18.70;96.70;;;;;;5088053;28;20044;-81
2022/10/07 08:45:30;;;;;;;9.25;7.18;;;18.80;96.70;;;;;;5086044;28;20060;-81
2022/10/07 08:48:02;;;;;;;10.90;7.50;;;18.90;96.70;;;;;;5087691;28;20039;-81
2022/10/07 08:50:43;;;;;;;12.52;7.68;;;19.00;96.70;;;;;;5088472;28;20505;-80
2022/10/07 08:53:19;;;;;;;8.75;6.90;;;19.00;96.70;;;;;;5079818;28;20035;-78
2022/10/07 08:55:54;;;;;;;12.45;8.20;;;19.20;96.70;;;;;;5086899;28;20093;-79
2022/10/07 08:58:39;;;;;;;8.77;7.03;;;19.30;96.70;;;;;;5085637;28;20547;-76
2022/10/07 09:01:19;;;;;;;11.65;8.15;;;19.30;96.70;;;;;;5078054;28;20355;-79
2022/10/07 09:03:57;;;;;;;10.60;7.95;;;19.50;96.70;;;;;;5085115;28;20162;-81
2022/10/07 09:06:32;;;;;;;11.93;8.27;;;19.60;96.70;;;;;;5096960;27;20596;-81
2022/10/07 09:09:05;;;;;;;9.75;7.82;;;19.60;96.70;;;;;;5081898;28;20143;-81
2022/10/07 09:11:34;;;;;;;11.65;8.45;;;19.70;96.70;;;;;;5084817;28;20052;-80
2022/10/07 09:14:23;;;;;;;9.48;7.15;;;19.90;96.70;;;;;;5081476;28;20120;-81
2022/10/07 09:16:53;;;;;;;9.00;7.22;;;19.90;96.70;;;;;;5083830;28;20125;-81
2022/10/07 09:19:28;;;;;;;12.20;8.38;;;20.00;96.70;;;;;;5064232;28;20049;-78
2022/10/07 09:22:04;;;;;;;11.18;8.20;;;20.10;96.70;;;;;;5078597;28;20075;-79
2022/10/07 09:24:34;;;;;;;13.95;9.32;;;20.20;96.70;;;;;;5068189;28;20596;-78
2022/10/07 09:27:10;;;;;;;13.43;9.23;;;20.40;96.70;;;;;;5076330;28;20032;-74
2022/10/07 09:29:39;;;;;;;10.38;8.50;;;20.60;96.70;;;;;;5084650;28;20047;-77
2022/10/07 09:32:10;;;;;;;12.13;9.43;;;20.70;96.70;;;;;;5081570;28;20064;-77
2022/10/07 09:34:38;;;;;;;10.45;8.57;;;20.70;96.70;;;;;;5084254;28;20126;-78
2022/10/07 09:37:15;;;;;;;12.30;9.00;;;20.80;96.70;;;;;;5085024;28;20083;-78
2022/10/07 09:39:44;;;;;;;11.32;8.77;;;20.90;96.70;;;;;;5085935;28;20071;-78
2022/10/07 09:42:28;;;;;;;9.43;8.25;;;21.10;96.70;;;;;;5084505;28;20044;-79
2022/10/07 09:45:00;;;;;;;10.48;8.20;;;21.30;96.70;;;;;;5081043;28;20126;-78
2022/10/07 09:47:34;;;;;;;11.60;8.88;;;21.40;96.70;;;;;;5083444;28;20476;-77
2022/10/07 09:50:03;;;;;;;9.48;7.93;;;21.40;96.70;;;;;;5084943;28;20067;-78
2022/10/07 09:52:33;;;;;;;10.50;8.25;;;21.50;96.70;;;;;;5083838;28;20117;-78
2022/10/07 09:55:38;;;;;;;9.35;7.90;;;21.60;96.70;;;;;;5067891;28;20043;-78
2022/10/07 09:58:16;;;;;;;11.07;8.35;;;21.80;96.70;;;;;;5084579;28;20097;-77
2022/10/07 10:00:46;;;;;;;9.70;7.80;;;22.00;96.70;;;;;;5098907;27;20093;-78
2022/10/07 10:03:16;;;;;;;10.48;7.63;;;22.00;96.70;;;;;;5083745;28;20326;-78
2022/10/07 10:05:56;;;;;;;10.93;8.77;;;22.00;96.70;;;;;;5082361;28;20048;-77
2022/10/07 10:08:29;;;;;;;10.27;7.93;;;22.10;96.70;;;;;;5098295;28;20066;-77
2022/10/07 10:11:00;;;;;;;8.95;7.82;;;22.20;96.70;;;;;;5082820;28;20701;-78
2022/10/07 10:13:31;;;;;;;11.00;7.43;;;22.30;96.70;;;;;;5084852;28;20063;-78
2022/10/07 10:16:26;;;;;;;8.18;7.25;;;22.50;96.70;;;;;;5084353;28;20044;-81
2022/10/07 10:18:57;;;;;;;10.25;7.50;;;22.60;96.70;;;;;;5084977;28;20040;-78
2022/10/07 10:21:29;;;;;;;10.77;7.47;;;22.50;96.70;;;;;;5082643;28;20046;-78
2022/10/07 10:24:00;;;;;;;9.20;7.65;;;22.60;96.70;;;;;;5082450;28;20048;-78
2022/10/07 10:26:55;;;;;;;8.25;7.43;;;22.70;96.70;;;;;;5091895;28;20076;-78
2022/10/07 10:29:36;;;;;;;9.10;8.20;;;22.80;96.70;;;;;;5079349;28;20051;-78
2022/10/07 10:32:31;;;;;;;9.38;7.28;;;23.00;96.70;;;;;;5082601;28;20078;-78
2022/10/07 10:35:06;;;;;;;9.10;7.45;;;23.20;96.70;;;;;;5078189;28;20063;-78
2022/10/07 10:37:56;;;;;;;11.38;7.80;;;23.00;96.70;;;;;;5084599;28;20782;-77
2022/10/07 10:40:33;;;;;;;8.20;7.40;;;23.10;96.70;;;;;;5080308;28;20047;-78
2022/10/07 10:43:10;;;;;;;;;;;23.40;96.70;;;;;;5087585;28;20482;-77
2022/10/07 10:45:45;;;;;;;8.88;7.82;;;23.30;96.70;;;;;;5082860;28;19924;-77
2022/10/07 10:48:27;;;;;;;9.57;7.28;;;23.30;96.70;;;;;;5078129;28;20044;-77
2022/10/07 10:51:06;;;;;;;8.95;7.18;;;23.50;96.70;;;;;;5090497;28;20048;-79
2022/10/07 10:53:44;;;;;;;9.13;7.30;;;23.70;96.70;;;;;;5083251;28;20068;-77
2022/10/07 10:56:34;;;;;;;9.40;7.75;;;23.80;96.70;;;;;;5082651;28;20048;-79
2022/10/07 10:59:19;;;;;;;10.85;8.32;;;23.90;96.70;;;;;;5081063;28;20505;-79
2022/10/07 11:01:53;;;;;;;11.32;8.55;;;23.90;96.70;;;;;;5091108;28;20053;-78
2022/10/07 11:04:39;;;;;;;12.30;7.85;;;24.00;96.70;;;;;;5063299;28;20044;-77
2022/10/07 11:07:16;;;;;;;10.90;7.63;;;24.00;96.70;;;;;;5079580;28;20130;-78
2022/10/07 11:09:50;;;;;;;10.05;7.72;;;24.00;96.70;;;;;;5081773;28;20044;-78
2022/10/07 11:12:25;;;;;;;9.55;7.78;;;24.10;96.70;;;;;;5079418;28;20055;-78
2022/10/07 11:14:58;;;;;;;10.70;7.57;;;24.10;96.70;;;;;;5077670;28;20123;-78
2022/10/07 11:17:29;;;;;;;8.82;7.60;;;24.10;96.70;;;;;;5075243;28;20063;-77
2022/10/07 11:20:10;;;;;;;8.00;7.20;;;24.20;96.70;;;;;;5083464;28;20048;-78
2022/10/07 11:22:44;;;;;;;8.18;6.90;;;24.40;96.70;;;;;;5075551;28;20123;-78
2022/10/07 11:25:23;;;;;;;8.50;7.15;;;24.60;96.70;;;;;;5082624;28;20052;-78
2022/10/07 11:27:54;;;;;;;8.57;6.40;;;24.60;96.70;;;;;;5081357;28;20425;-78
2022/10/07 11:30:27;;;;;;;10.00;7.25;;;24.60;96.70;;;;;;5081732;28;20098;-77
2022/10/07 11:33:00;;;;;;;6.82;6.07;;;24.70;96.70;;;;;;5082297;28;20051;-78
2022/10/07 11:35:31;;;;;;;6.82;6.00;;;24.70;96.70;;;;;;5082680;28;20054;-77
2022/10/07 11:38:11;;;;;;;9.75;6.65;;;24.80;96.70;;;;;;5079932;28;20398;-76
2022/10/07 11:40:45;;;;;;;7.82;6.82;;;24.70;96.70;;;;;;5083860;28;20063;-78
2022/10/07 11:43:19;;;;;;;8.15;6.72;;;24.90;96.70;;;;;;5092311;28;20040;-77
2022/10/07 11:45:51;;;;;;;9.20;6.55;;;25.00;96.70;;;;;;5081434;28;20838;-77
2022/10/07 11:48:26;;;;;;;7.57;6.57;;;25.00;96.70;;;;;;5055702;28;20048;-77
2022/10/07 11:51:00;;;;;;;7.40;5.53;;;25.10;96.70;;;;;;5082406;28;21477;-78
2022/10/07 11:53:33;;;;;;;7.40;6.53;;;25.20;96.70;;;;;;5083370;28;20045;-77
2022/10/07 11:56:04;;;;;;;7.10;6.40;;;25.30;96.70;;;;;;5080531;28;20136;-77
2022/10/07 11:58:37;;;;;;;8.48;6.13;;;25.30;96.70;;;;;;5082168;28;20051;-76
2022/10/07 12:01:45;;;;;;;9.60;6.47;;;25.40;96.70;;;;;;5068439;28;20044;-77
2022/10/07 12:04:34;;;;;;;6.55;5.95;;;25.50;96.70;;;;;;5083198;28;20050;-77
2022/10/07 12:07:51;;;;;;;8.15;6.07;;;25.40;96.70;;;;;;5082822;28;20051;-77
2022/10/07 12:10:25;;;;;;;6.90;5.72;;;25.40;96.70;;;;;;5079488;28;20051;-77
2022/10/07 12:12:57;;;;;;;8.02;5.68;;;25.60;96.70;;;;;;5086824;28;20048;-77
2022/10/07 12:15:42;;;;;;;7.13;5.65;;;25.60;96.70;;;;;;5083152;28;20071;-77
2022/10/07 12:18:26;;;;;;;6.22;5.32;;;25.80;96.70;;;;;;5065859;28;20044;-78
2022/10/07 12:21:03;;;;;;;11.65;6.00;;;26.00;96.70;;;;;;5082466;28;20048;-76
2022/10/07 12:24:08;;;;;;;6.35;5.07;;;26.10;96.70;;;;;;5085084;28;20524;-77
2022/10/07 12:26:45;;;;;;;8.65;5.85;;;26.30;96.70;;;;;;5086034;28;20051;-77
2022/10/07 12:29:48;;;;;;;6.47;5.00;;;26.40;96.70;;;;;;5085802;28;20387;-77
2022/10/07 12:32:56;;;;;;;5.93;5.32;;;26.50;96.70;;;;;;5084489;28;20051;-77
2022/10/07 12:35:49;;;;;;;5.25;4.38;;;26.30;96.70;;;;;;5082572;28;20051;-77
2022/10/07 12:38:24;;;;;;;5.43;4.93;;;26.40;96.70;;;;;;5085035;28;20090;-77
2022/10/07 12:41:23;;;;;;;7.10;4.93;;;26.50;96.70;;;;;;5066737;28;20048;-77
2022/10/07 12:44:04;;;;;;;6.82;5.20;;;26.70;96.70;;;;;;5083658;28;20044;-77
2022/10/07 12:46:40;;;;;;;7.85;5.35;;;26.80;96.70;;;;;;5081747;28;20569;-77
2022/10/07 12:49:21;;;;;;;7.32;5.63;;;26.90;96.70;;;;;;5083901;28;20101;-77
2022/10/07 12:51:52;;;;;;;6.18;5.20;;;27.00;96.70;;;;;;5079373;28;20532;-77
2022/10/07 12:54:28;;;;;;;5.63;4.43;;;27.10;96.70;;;;;;5083313;28;20055;-77
2022/10/07 12:56:57;;;;;;;5.35;4.20;;;27.30;96.70;;;;;;5068672;28;20052;-77
2022/10/07 12:59:47;;;;;;;5.50;4.40;;;27.30;96.70;;;;;;5084158;28;20036;-77
2022/10/07 13:03:06;;;;;;;4.78;4.25;;;27.20;96.70;;;;;;5071944;28;20041;-77
2022/10/07 13:06:12;;;;;;;4.57;3.35;;;27.30;96.70;;;;;;5084549;28;20082;-76
2022/10/07 13:09:14;;;;;;;4.63;3.70;;;27.50;96.70;;;;;;5081647;28;20067;-77
2022/10/07 13:12:21;;;;;;;6.43;4.03;;;27.50;96.70;;;;;;5086254;28;20051;-77
2022/10/07 13:15:02;;;;;;;4.65;3.75;;;27.50;96.70;;;;;;5085160;28;20118;-77
2022/10/07 13:17:39;;;;;;;6.07;3.75;;;27.60;96.70;;;;;;5083292;28;20531;-77
2022/10/07 13:20:36;;;;;;;5.47;3.65;;;27.70;96.70;;;;;;5083471;28;20118;-77
2022/10/07 13:23:14;;;;;;;5.47;3.95;;;27.70;96.70;;;;;;5083506;28;20561;-77
2022/10/07 13:25:46;;;;;;;5.45;4.38;;;27.80;96.70;;;;;;5085784;28;20462;-77
2022/10/07 13:28:17;;;;;;;5.25;4.13;;;27.70;96.70;;;;;;5082998;28;20078;-77